Aérodrome :
LOGIN :

S'inscrire | Disclaimer

   EN    FR    IT 

 










Légende :    VFR   VFR Marginal   IFR   IFR Intensif   IFR Très Intensif
Visi : 
Plafond : 
>= 8 km
>= 3000ft
5 à 8 km
1000 à 3000 ft
1500m à 5 km
500 à 1000 ft
800 à 1500m
200 à 500 ft
< 800m
< 200 ft
Symboles :   Orages  Brouillard  Fortes neiges  Fortes précipitations  Vent > 20 kt
SIGMETs :   Divers  Orages  Givrage  Turbulence  Onde Orograph.  Cendres Volcan.






- Altitude de l'aérodrome : 230 ft


ETHB - Buckeburg Army

DERNIER METAR :
  • 282120Z 18002KT 9000 -RADZ BKN013 06/04 Q1013 GRN

METARs EXPIRÉS :
  • 282020Z VRB01KT 8000 -RA BKN015 06/04 Q1013 WHT
  • 281954Z 16003KT 9000 -RA BKN015 06/04 Q1012 WHT FCST CNL
  • 281920Z 20002KT 9000 -RA BKN016 06/04 Q1012 WHT WHT BECMG GRN
  • 281820Z 18006KT 9999 -RA BKN017 07/03 Q1012 WHT BLU TEMPO WHT

TAF TAF ETHB
Valide du 28 à 18h jusqu'au 29 à 03h UTC


281705Z 2818/2903 18008KT 9000 NSW BKN025
TEMPO 2818/2820 17010KT 6000 -RADZ BKN015
BECMG 2819/2821 16005KT 6000 -RA FEW010 BKN020
TEMPO 2820/2903 15010KT 4000 RADZ SCT007 BKN010



MET'MAP, la Météo Aéronautique d'un coup d'oeil ! - Copyright ORBIFLY Décembre 2007 - Disclaimer

ORBIFLY MET'MAP TEAM :

Programmation & Développement : Alexandra Zaïnal
Sur une idée originale de : Baudouin d'Aumeries
Soutien technique & logistique : Manuel Goepfert
Assistance : Marc-Olivier Méhu




SOURCES & CREDITS :

   NOAA